sensor_id;sensor_type;location;lat;lon;timestamp;pressure;altitude;pressure_sealevel;temperature;humidity
63654;BME280;49809;47.418;19.080;2022-09-21T00:01:47;100817.69;;;7.61;100.00
63654;BME280;49809;47.418;19.080;2022-09-21T00:04:50;100822.00;;;7.56;100.00
63654;BME280;49809;47.418;19.080;2022-09-21T00:07:53;100825.44;;;7.56;100.00
63654;BME280;49809;47.418;19.080;2022-09-21T00:10:56;100823.19;;;7.60;100.00
63654;BME280;49809;47.418;19.080;2022-09-21T00:14:05;100826.75;;;7.65;100.00
63654;BME280;49809;47.418;19.080;2022-09-21T00:17:10;100821.56;;;7.77;100.00
63654;BME280;49809;47.418;19.080;2022-09-21T00:20:14;100822.56;;;7.94;100.00
63654;BME280;49809;47.418;19.080;2022-09-21T00:23:18;100824.16;;;8.13;100.00
63654;BME280;49809;47.418;19.080;2022-09-21T00:26:23;100823.00;;;8.27;100.00
63654;BME280;49809;47.418;19.080;2022-09-21T00:29:29;100819.03;;;8.37;100.00
63654;BME280;49809;47.418;19.080;2022-09-21T00:32:35;100825.62;;;8.46;100.00
63654;BME280;49809;47.418;19.080;2022-09-21T00:35:41;100817.84;;;8.51;99.81
63654;BME280;49809;47.418;19.080;2022-09-21T00:38:52;100817.16;;;8.55;99.13
63654;BME280;49809;47.418;19.080;2022-09-21T00:41:58;100818.78;;;8.56;98.99
63654;BME280;49809;47.418;19.080;2022-09-21T00:45:01;100823.25;;;8.56;99.11
63654;BME280;49809;47.418;19.080;2022-09-21T00:48:09;100827.37;;;8.52;99.19
63654;BME280;49809;47.418;19.080;2022-09-21T00:51:34;100823.78;;;8.46;99.60
63654;BME280;49809;47.418;19.080;2022-09-21T00:54:45;100831.31;;;8.43;99.53
63654;BME280;49809;47.418;19.080;2022-09-21T00:57:57;100832.66;;;8.34;100.00
63654;BME280;49809;47.418;19.080;2022-09-21T01:01:08;100836.41;;;8.26;100.00
63654;BME280;49809;47.418;19.080;2022-09-21T01:04:16;100835.75;;;8.12;100.00
63654;BME280;49809;47.418;19.080;2022-09-21T01:07:28;100836.28;;;8.03;100.00
63654;BME280;49809;47.418;19.080;2022-09-21T01:10:45;100841.28;;;7.93;100.00
63654;BME280;49809;47.418;19.080;2022-09-21T01:14:24;100841.78;;;7.83;100.00
63654;BME280;49809;47.418;19.080;2022-09-21T01:21:22;100843.16;;;7.67;100.00
63654;BME280;49809;47.418;19.080;2022-09-21T01:24:41;100843.22;;;7.61;100.00
63654;BME280;49809;47.418;19.080;2022-09-21T01:31:39;100842.91;;;7.51;100.00
63654;BME280;49809;47.418;19.080;2022-09-21T01:35:12;100844.75;;;7.50;100.00
63654;BME280;49809;47.418;19.080;2022-09-21T01:38:21;100844.97;;;7.49;100.00
63654;BME280;49809;47.418;19.080;2022-09-21T01:41:29;100834.22;;;7.50;100.00
63654;BME280;49809;47.418;19.080;2022-09-21T01:44:34;100836.63;;;7.52;100.00
63654;BME280;49809;47.418;19.080;2022-09-21T01:47:40;100836.22;;;7.55;100.00
63654;BME280;49809;47.418;19.080;2022-09-21T01:50:53;100841.63;;;7.60;100.00
63654;BME280;49809;47.418;19.080;2022-09-21T01:54:19;100845.19;;;7.65;100.00
63654;BME280;49809;47.418;19.080;2022-09-21T02:00:39;100846.66;;;7.79;100.00
63654;BME280;49809;47.418;19.080;2022-09-21T02:03:49;100850.25;;;7.85;100.00
63654;BME280;49809;47.418;19.080;2022-09-21T02:06:57;100846.16;;;7.89;100.00
63654;BME280;49809;47.418;19.080;2022-09-21T02:10:03;100857.00;;;7.99;100.00
63654;BME280;49809;47.418;19.080;2022-09-21T02:13:07;100848.81;;;8.07;100.00
63654;BME280;49809;47.418;19.080;2022-09-21T02:16:39;100852.75;;;8.16;100.00
63654;BME280;49809;47.418;19.080;2022-09-21T02:23:01;100855.38;;;8.16;100.00
63654;BME280;49809;47.418;19.080;2022-09-21T02:26:13;100851.72;;;8.17;100.00
63654;BME280;49809;47.418;19.080;2022-09-21T02:29:31;100852.97;;;8.15;100.00
63654;BME280;49809;47.418;19.080;2022-09-21T02:32:42;100859.63;;;8.17;100.00
63654;BME280;49809;47.418;19.080;2022-09-21T02:36:18;100853.91;;;8.20;100.00
63654;BME280;49809;47.418;19.080;2022-09-21T02:39:37;100860.81;;;8.21;100.00
63654;BME280;49809;47.418;19.080;2022-09-21T02:42:48;100859.12;;;8.27;99.61
63654;BME280;49809;47.418;19.080;2022-09-21T02:45:58;100865.97;;;8.28;99.83
63654;BME280;49809;47.418;19.080;2022-09-21T02:49:11;100866.38;;;8.32;99.15
63654;BME280;49809;47.418;19.080;2022-09-21T02:52:19;100861.00;;;8.38;98.68
63654;BME280;49809;47.418;19.080;2022-09-21T02:55:24;100870.31;;;8.41;97.96
63654;BME280;49809;47.418;19.080;2022-09-21T02:58:28;100866.66;;;8.42;96.99
63654;BME280;49809;47.418;19.080;2022-09-21T03:01:33;100856.12;;;8.42;96.96
63654;BME280;49809;47.418;19.080;2022-09-21T03:04:43;100862.19;;;8.42;97.43
63654;BME280;49809;47.418;19.080;2022-09-21T03:07:50;100861.94;;;8.44;97.62
63654;BME280;49809;47.418;19.080;2022-09-21T03:10:52;100864.37;;;8.45;97.89
63654;BME280;49809;47.418;19.080;2022-09-21T03:13:55;100870.87;;;8.43;98.18
63654;BME280;49809;47.418;19.080;2022-09-21T03:17:00;100867.69;;;8.41;97.69
63654;BME280;49809;47.418;19.080;2022-09-21T03:20:06;100876.75;;;8.45;97.02
63654;BME280;49809;47.418;19.080;2022-09-21T03:23:09;100879.25;;;8.40;96.42
63654;BME280;49809;47.418;19.080;2022-09-21T03:26:14;100880.28;;;8.39;97.20
63654;BME280;49809;47.418;19.080;2022-09-21T03:29:16;100885.19;;;8.35;97.26
63654;BME280;49809;47.418;19.080;2022-09-21T03:32:19;100884.59;;;8.33;97.60
63654;BME280;49809;47.418;19.080;2022-09-21T03:35:24;100881.75;;;8.35;97.86
63654;BME280;49809;47.418;19.080;2022-09-21T03:38:30;100888.19;;;8.39;97.51
63654;BME280;49809;47.418;19.080;2022-09-21T03:41:35;100893.03;;;8.42;97.51
63654;BME280;49809;47.418;19.080;2022-09-21T03:44:38;100886.16;;;8.41;97.86
63654;BME280;49809;47.418;19.080;2022-09-21T03:47:43;100881.91;;;8.40;98.51
63654;BME280;49809;47.418;19.080;2022-09-21T03:50:46;100884.06;;;8.43;98.90
63654;BME280;49809;47.418;19.080;2022-09-21T03:53:54;100884.06;;;8.43;98.65
63654;BME280;49809;47.418;19.080;2022-09-21T03:57:02;100894.28;;;8.39;98.88
63654;BME280;49809;47.418;19.080;2022-09-21T04:00:08;100894.37;;;8.33;98.96
63654;BME280;49809;47.418;19.080;2022-09-21T04:03:14;100896.59;;;8.29;99.03
63654;BME280;49809;47.418;19.080;2022-09-21T04:06:19;100898.66;;;8.27;99.23
63654;BME280;49809;47.418;19.080;2022-09-21T04:09:25;100900.50;;;8.26;99.86
63654;BME280;49809;47.418;19.080;2022-09-21T04:12:28;100904.75;;;8.27;100.00
63654;BME280;49809;47.418;19.080;2022-09-21T04:15:35;100911.22;;;8.32;99.95
63654;BME280;49809;47.418;19.080;2022-09-21T04:18:39;100908.59;;;8.32;99.45
63654;BME280;49809;47.418;19.080;2022-09-21T04:21:42;100908.81;;;8.30;99.15
63654;BME280;49809;47.418;19.080;2022-09-21T04:24:44;100908.59;;;8.32;98.79
63654;BME280;49809;47.418;19.080;2022-09-21T04:27:47;100913.88;;;8.32;97.97
63654;BME280;49809;47.418;19.080;2022-09-21T04:30:55;100913.09;;;8.24;98.24
63654;BME280;49809;47.418;19.080;2022-09-21T04:33:58;100915.59;;;8.19;98.82
63654;BME280;49809;47.418;19.080;2022-09-21T04:37:01;100918.37;;;8.06;99.31
63654;BME280;49809;47.418;19.080;2022-09-21T04:40:08;100920.00;;;8.07;100.00
63654;BME280;49809;47.418;19.080;2022-09-21T04:43:11;100924.66;;;8.05;100.00
63654;BME280;49809;47.418;19.080;2022-09-21T04:46:16;100930.31;;;8.09;100.00
63654;BME280;49809;47.418;19.080;2022-09-21T04:49:27;100933.91;;;8.14;100.00
63654;BME280;49809;47.418;19.080;2022-09-21T04:52:30;100933.03;;;8.20;100.00
63654;BME280;49809;47.418;19.080;2022-09-21T04:55:33;100933.16;;;8.25;100.00
63654;BME280;49809;47.418;19.080;2022-09-21T04:58:36;100939.78;;;8.35;100.00
63654;BME280;49809;47.418;19.080;2022-09-21T05:01:40;100949.13;;;8.37;99.72
63654;BME280;49809;47.418;19.080;2022-09-21T05:04:42;100953.28;;;8.45;99.66
63654;BME280;49809;47.418;19.080;2022-09-21T05:07:51;100957.66;;;8.51;99.13
63654;BME280;49809;47.418;19.080;2022-09-21T05:10:54;100957.38;;;8.41;98.66
63654;BME280;49809;47.418;19.080;2022-09-21T05:13:59;100962.66;;;8.41;98.33
63654;BME280;49809;47.418;19.080;2022-09-21T05:17:07;100956.06;;;8.32;98.37
63654;BME280;49809;47.418;19.080;2022-09-21T05:20:15;100956.44;;;8.35;98.92
63654;BME280;49809;47.418;19.080;2022-09-21T05:23:18;100954.28;;;8.44;99.35
63654;BME280;49809;47.418;19.080;2022-09-21T05:26:40;100954.56;;;8.54;98.78
63654;BME280;49809;47.418;19.080;2022-09-21T05:29:46;100952.63;;;8.79;98.13
63654;BME280;49809;47.418;19.080;2022-09-21T05:33:00;100954.00;;;9.00;97.23
63654;BME280;49809;47.418;19.080;2022-09-21T05:39:27;100962.66;;;9.19;94.80
63654;BME280;49809;47.418;19.080;2022-09-21T05:42:30;100967.34;;;9.16;94.43
63654;BME280;49809;47.418;19.080;2022-09-21T05:45:33;100965.50;;;9.17;94.72
63654;BME280;49809;47.418;19.080;2022-09-21T05:48:42;100964.72;;;9.16;95.15
63654;BME280;49809;47.418;19.080;2022-09-21T05:52:12;100964.50;;;9.30;93.92
63654;BME280;49809;47.418;19.080;2022-09-21T05:55:28;100971.12;;;9.62;93.40
63654;BME280;49809;47.418;19.080;2022-09-21T06:05:28;100962.97;;;10.22;84.85
63654;BME280;49809;47.418;19.080;2022-09-21T06:08:51;100964.69;;;10.39;83.87
63654;BME280;49809;47.418;19.080;2022-09-21T06:11:56;100975.53;;;10.66;82.34
63654;BME280;49809;47.418;19.080;2022-09-21T06:14:59;100975.81;;;10.81;81.53
63654;BME280;49809;47.418;19.080;2022-09-21T06:18:03;100969.53;;;10.71;81.30
63654;BME280;49809;47.418;19.080;2022-09-21T06:21:11;100966.78;;;10.94;81.37
63654;BME280;49809;47.418;19.080;2022-09-21T06:24:14;100976.50;;;11.17;80.26
63654;BME280;49809;47.418;19.080;2022-09-21T06:27:21;100984.44;;;11.33;82.01
63654;BME280;49809;47.418;19.080;2022-09-21T06:30:25;100977.00;;;11.30;80.35
63654;BME280;49809;47.418;19.080;2022-09-21T06:33:28;100981.97;;;11.27;80.79
63654;BME280;49809;47.418;19.080;2022-09-21T06:36:32;100979.16;;;11.33;81.09
63654;BME280;49809;47.418;19.080;2022-09-21T06:39:37;100978.94;;;11.68;79.89
63654;BME280;49809;47.418;19.080;2022-09-21T06:43:02;100977.84;;;11.81;77.82
63654;BME280;49809;47.418;19.080;2022-09-21T06:46:05;100977.72;;;11.93;75.77
63654;BME280;49809;47.418;19.080;2022-09-21T06:49:08;100977.31;;;12.39;74.70
63654;BME280;49809;47.418;19.080;2022-09-21T06:52:11;100985.97;;;12.51;73.92
63654;BME280;49809;47.418;19.080;2022-09-21T06:55:17;100994.66;;;12.69;73.41
63654;BME280;49809;47.418;19.080;2022-09-21T06:58:22;101002.19;;;12.33;73.35
63654;BME280;49809;47.418;19.080;2022-09-21T07:01:38;101000.41;;;12.60;73.09
63654;BME280;49809;47.418;19.080;2022-09-21T07:04:41;100994.22;;;12.55;73.90
63654;BME280;49809;47.418;19.080;2022-09-21T07:07:43;100997.50;;;12.84;71.82
63654;BME280;49809;47.418;19.080;2022-09-21T07:10:46;101001.31;;;12.93;71.77
63654;BME280;49809;47.418;19.080;2022-09-21T07:14:16;100998.94;;;13.18;70.34
63654;BME280;49809;47.418;19.080;2022-09-21T07:17:23;100991.22;;;13.43;70.92
63654;BME280;49809;47.418;19.080;2022-09-21T07:20:26;100990.41;;;13.80;68.97
63654;BME280;49809;47.418;19.080;2022-09-21T07:23:29;100999.59;;;13.94;68.10
63654;BME280;49809;47.418;19.080;2022-09-21T07:26:32;100986.50;;;14.34;67.34
63654;BME280;49809;47.418;19.080;2022-09-21T07:29:59;100990.38;;;14.59;65.38
63654;BME280;49809;47.418;19.080;2022-09-21T07:33:02;100990.13;;;14.65;64.61
63654;BME280;49809;47.418;19.080;2022-09-21T07:36:06;100994.69;;;14.70;64.15
63654;BME280;49809;47.418;19.080;2022-09-21T07:39:12;100983.56;;;15.03;64.17
63654;BME280;49809;47.418;19.080;2022-09-21T07:42:19;100991.62;;;15.39;63.57
63654;BME280;49809;47.418;19.080;2022-09-21T07:45:25;100990.03;;;15.43;60.91
63654;BME280;49809;47.418;19.080;2022-09-21T07:48:29;100991.12;;;15.62;61.19
63654;BME280;49809;47.418;19.080;2022-09-21T07:51:37;100992.63;;;16.24;60.25
63654;BME280;49809;47.418;19.080;2022-09-21T07:54:40;100999.87;;;15.98;60.09
63654;BME280;49809;47.418;19.080;2022-09-21T07:57:46;100994.75;;;16.27;60.12
63654;BME280;49809;47.418;19.080;2022-09-21T08:01:09;100992.72;;;16.78;59.30
63654;BME280;49809;47.418;19.080;2022-09-21T08:04:16;100985.00;;;16.71;57.83
63654;BME280;49809;47.418;19.080;2022-09-21T08:07:39;100991.38;;;16.75;57.19
63654;BME280;49809;47.418;19.080;2022-09-21T08:10:46;100995.28;;;17.37;55.22
63654;BME280;49809;47.418;19.080;2022-09-21T08:13:52;100986.16;;;17.38;53.41
63654;BME280;49809;47.418;19.080;2022-09-21T08:17:18;100988.22;;;17.17;55.57
63654;BME280;49809;47.418;19.080;2022-09-21T08:20:23;100985.47;;;16.83;56.76
63654;BME280;49809;47.418;19.080;2022-09-21T08:23:30;100992.91;;;16.91;57.14
63654;BME280;49809;47.418;19.080;2022-09-21T08:26:34;100988.44;;;17.60;54.28
63654;BME280;49809;47.418;19.080;2022-09-21T08:29:39;100989.97;;;17.32;52.64
63654;BME280;49809;47.418;19.080;2022-09-21T08:32:42;100996.81;;;16.50;54.81
63654;BME280;49809;47.418;19.080;2022-09-21T08:35:54;100985.19;;;17.24;51.49
63654;BME280;49809;47.418;19.080;2022-09-21T08:38:57;100990.91;;;17.85;51.19
63654;BME280;49809;47.418;19.080;2022-09-21T08:45:44;100991.59;;;19.42;47.47
63654;BME280;49809;47.418;19.080;2022-09-21T08:49:01;100995.66;;;19.39;48.01
63654;BME280;49809;47.418;19.080;2022-09-21T08:52:11;100996.56;;;19.67;45.99
63654;BME280;49809;47.418;19.080;2022-09-21T08:55:20;101001.06;;;19.72;45.87
63654;BME280;49809;47.418;19.080;2022-09-21T08:58:28;100997.84;;;20.29;43.84
63654;BME280;49809;47.418;19.080;2022-09-21T09:05:11;101000.66;;;19.65;46.18
63654;BME280;49809;47.418;19.080;2022-09-21T09:08:34;101000.31;;;20.94;43.11
63654;BME280;49809;47.418;19.080;2022-09-21T09:18:38;100991.06;;;21.45;41.84
63654;BME280;49809;47.418;19.080;2022-09-21T09:21:49;100989.56;;;20.80;41.02
63654;BME280;49809;47.418;19.080;2022-09-21T09:24:55;100990.44;;;21.25;40.42
63654;BME280;49809;47.418;19.080;2022-09-21T09:31:30;100989.53;;;21.52;38.78
63654;BME280;49809;47.418;19.080;2022-09-21T09:34:40;100985.91;;;20.76;40.90
63654;BME280;49809;47.418;19.080;2022-09-21T09:37:53;100985.44;;;20.61;40.81
63654;BME280;49809;47.418;19.080;2022-09-21T09:50:55;100983.19;;;21.79;39.06
63654;BME280;49809;47.418;19.080;2022-09-21T09:54:25;100992.91;;;22.20;40.63
63654;BME280;49809;47.418;19.080;2022-09-21T09:58:20;100984.69;;;21.41;41.70
63654;BME280;49809;47.418;19.080;2022-09-21T10:01:39;100992.97;;;22.37;41.84
63654;BME280;49809;47.418;19.080;2022-09-21T10:07:58;100990.41;;;22.80;39.71
63654;BME280;49809;47.418;19.080;2022-09-21T10:11:04;100987.38;;;21.63;40.38
63654;BME280;49809;47.418;19.080;2022-09-21T10:14:09;100986.09;;;20.80;43.47
63654;BME280;49809;47.418;19.080;2022-09-21T10:17:16;100984.72;;;20.55;41.76
63654;BME280;49809;47.418;19.080;2022-09-21T10:20:24;100977.53;;;21.14;40.79
63654;BME280;49809;47.418;19.080;2022-09-21T10:23:30;100978.88;;;22.00;39.66
63654;BME280;49809;47.418;19.080;2022-09-21T10:26:36;100969.84;;;21.07;41.96
63654;BME280;49809;47.418;19.080;2022-09-21T10:29:44;100978.56;;;21.71;41.39
63654;BME280;49809;47.418;19.080;2022-09-21T10:32:53;100977.66;;;22.06;40.11
63654;BME280;49809;47.418;19.080;2022-09-21T10:35:58;100969.41;;;20.56;42.92
63654;BME280;49809;47.418;19.080;2022-09-21T10:42:41;100976.56;;;21.85;40.27
63654;BME280;49809;47.418;19.080;2022-09-21T10:45:52;100968.66;;;21.36;42.26
63654;BME280;49809;47.418;19.080;2022-09-21T10:48:56;100972.44;;;22.19;39.72
63654;BME280;49809;47.418;19.080;2022-09-21T10:52:00;100967.69;;;23.15;38.47
63654;BME280;49809;47.418;19.080;2022-09-21T10:55:05;100964.69;;;22.82;38.92
63654;BME280;49809;47.418;19.080;2022-09-21T10:58:13;100976.09;;;22.23;38.27
63654;BME280;49809;47.418;19.080;2022-09-21T11:01:23;100973.66;;;21.73;41.16
63654;BME280;49809;47.418;19.080;2022-09-21T11:04:52;100969.34;;;21.63;41.89
63654;BME280;49809;47.418;19.080;2022-09-21T11:08:48;100957.53;;;20.57;41.96
63654;BME280;49809;47.418;19.080;2022-09-21T11:57:42;100919.06;;;18.96;45.39
63654;BME280;49809;47.418;19.080;2022-09-21T12:17:43;100906.72;;;18.95;43.61
63654;BME280;49809;47.418;19.080;2022-09-21T12:24:25;100893.41;;;18.71;44.31
63654;BME280;49809;47.418;19.080;2022-09-21T12:27:47;100892.38;;;18.86;43.92
63654;BME280;49809;47.418;19.080;2022-09-21T12:31:03;100888.94;;;19.64;42.38
63654;BME280;49809;47.418;19.080;2022-09-21T12:34:21;100889.66;;;19.56;42.45
63654;BME280;49809;47.418;19.080;2022-09-21T12:40:51;100888.53;;;19.57;41.83
63654;BME280;49809;47.418;19.080;2022-09-21T12:47:18;100887.53;;;19.20;44.72
63654;BME280;49809;47.418;19.080;2022-09-21T12:53:35;100875.22;;;18.68;41.32
63654;BME280;49809;47.418;19.080;2022-09-21T12:56:52;100880.94;;;18.80;42.42
63654;BME280;49809;47.418;19.080;2022-09-21T13:03:39;100878.56;;;18.36;46.30
63654;BME280;49809;47.418;19.080;2022-09-21T13:07:20;100878.03;;;18.39;46.57
63654;BME280;49809;47.418;19.080;2022-09-21T13:13:51;100868.69;;;18.55;42.30
63654;BME280;49809;47.418;19.080;2022-09-21T13:16:59;100875.69;;;18.89;42.12
63654;BME280;49809;47.418;19.080;2022-09-21T13:20:17;100874.84;;;18.75;44.25
63654;BME280;49809;47.418;19.080;2022-09-21T13:23:24;100865.53;;;18.53;44.33
63654;BME280;49809;47.418;19.080;2022-09-21T13:26:43;100878.03;;;18.15;46.33
63654;BME280;49809;47.418;19.080;2022-09-21T13:33:38;100869.81;;;18.31;45.86
63654;BME280;49809;47.418;19.080;2022-09-21T13:43:23;100871.56;;;17.98;44.29
63654;BME280;49809;47.418;19.080;2022-09-21T13:49:46;100868.25;;;17.82;45.62
63654;BME280;49809;47.418;19.080;2022-09-21T13:52:55;100869.84;;;18.07;47.43
63654;BME280;49809;47.418;19.080;2022-09-21T13:56:19;100863.72;;;18.25;45.75
63654;BME280;49809;47.418;19.080;2022-09-21T13:59:24;100867.09;;;18.12;44.91
63654;BME280;49809;47.418;19.080;2022-09-21T14:02:36;100863.47;;;18.64;44.38
63654;BME280;49809;47.418;19.080;2022-09-21T14:05:53;100857.00;;;18.84;44.46
63654;BME280;49809;47.418;19.080;2022-09-21T14:09:05;100864.81;;;18.99;43.71
63654;BME280;49809;47.418;19.080;2022-09-21T14:12:18;100858.03;;;18.08;46.56
63654;BME280;49809;47.418;19.080;2022-09-21T14:18:36;100863.66;;;18.30;46.12
63654;BME280;49809;47.418;19.080;2022-09-21T14:25:23;100860.41;;;17.91;44.87
63654;BME280;49809;47.418;19.080;2022-09-21T14:31:37;100862.50;;;17.94;45.04
63654;BME280;49809;47.418;19.080;2022-09-21T14:34:46;100874.03;;;17.70;44.26
63654;BME280;49809;47.418;19.080;2022-09-21T14:37:54;100865.31;;;17.60;44.95
63654;BME280;49809;47.418;19.080;2022-09-21T14:41:04;100871.63;;;17.69;46.00
63654;BME280;49809;47.418;19.080;2022-09-21T14:44:26;100869.84;;;17.59;45.90
63654;BME280;49809;47.418;19.080;2022-09-21T14:51:05;100856.12;;;17.37;45.82
63654;BME280;49809;47.418;19.080;2022-09-21T14:54:26;100867.37;;;17.34;46.26
63654;BME280;49809;47.418;19.080;2022-09-21T15:01:35;100861.63;;;17.22;47.36
63654;BME280;49809;47.418;19.080;2022-09-21T15:04:43;100856.22;;;16.98;45.90
63654;BME280;49809;47.418;19.080;2022-09-21T15:18:19;100861.78;;;16.68;48.65
63654;BME280;49809;47.418;19.080;2022-09-21T15:24:50;100856.25;;;16.49;49.49
63654;BME280;49809;47.418;19.080;2022-09-21T15:28:35;100854.66;;;16.48;49.04
63654;BME280;49809;47.418;19.080;2022-09-21T15:32:02;100860.03;;;16.43;50.53
63654;BME280;49809;47.418;19.080;2022-09-21T15:35:30;100860.63;;;16.35;51.21
63654;BME280;49809;47.418;19.080;2022-09-21T15:39:35;100861.72;;;16.29;51.43
63654;BME280;49809;47.418;19.080;2022-09-21T15:43:19;100869.22;;;16.22;51.29
63654;BME280;49809;47.418;19.080;2022-09-21T15:47:02;100862.38;;;16.00;49.38
63654;BME280;49809;47.418;19.080;2022-09-21T15:50:14;100873.63;;;15.92;49.60
63654;BME280;49809;47.418;19.080;2022-09-21T15:53:27;100872.09;;;15.71;50.80
63654;BME280;49809;47.418;19.080;2022-09-21T15:56:35;100868.63;;;15.65;50.75
63654;BME280;49809;47.418;19.080;2022-09-21T15:59:50;100870.50;;;15.65;51.95
63654;BME280;49809;47.418;19.080;2022-09-21T16:03:02;100881.97;;;15.40;51.76
63654;BME280;49809;47.418;19.080;2022-09-21T16:06:25;100881.72;;;15.27;52.91
63654;BME280;49809;47.418;19.080;2022-09-21T16:10:38;100891.88;;;15.14;52.11
63654;BME280;49809;47.418;19.080;2022-09-21T16:13:47;100890.50;;;14.97;52.41
63654;BME280;49809;47.418;19.080;2022-09-21T16:17:55;100884.91;;;14.88;53.20
63654;BME280;49809;47.418;19.080;2022-09-21T16:21:41;100897.72;;;14.76;54.46
63654;BME280;49809;47.418;19.080;2022-09-21T16:25:02;100895.53;;;14.68;55.01
63654;BME280;49809;47.418;19.080;2022-09-21T16:29:37;100896.59;;;14.52;55.64
63654;BME280;49809;47.418;19.080;2022-09-21T16:33:35;100895.75;;;14.41;56.04
63654;BME280;49809;47.418;19.080;2022-09-21T16:37:21;100900.22;;;14.30;56.88
63654;BME280;49809;47.418;19.080;2022-09-21T16:41:02;100901.25;;;14.24;57.69
63654;BME280;49809;47.418;19.080;2022-09-21T16:44:48;100902.25;;;14.08;58.65
63654;BME280;49809;47.418;19.080;2022-09-21T16:48:16;100910.44;;;13.97;59.76
63654;BME280;49809;47.418;19.080;2022-09-21T16:52:02;100906.91;;;13.86;60.67
63654;BME280;49809;47.418;19.080;2022-09-21T16:55:09;100916.97;;;13.74;61.50
63654;BME280;49809;47.418;19.080;2022-09-21T16:58:35;100913.69;;;13.62;61.90
63654;BME280;49809;47.418;19.080;2022-09-21T17:02:12;100919.44;;;13.48;62.33
63654;BME280;49809;47.418;19.080;2022-09-21T17:05:36;100922.16;;;13.54;62.04
63654;BME280;49809;47.418;19.080;2022-09-21T17:08:41;100929.06;;;13.55;62.14
63654;BME280;49809;47.418;19.080;2022-09-21T17:12:26;100929.56;;;13.52;62.30
63654;BME280;49809;47.418;19.080;2022-09-21T17:15:50;100931.09;;;13.42;62.43
63654;BME280;49809;47.418;19.080;2022-09-21T17:19:01;100937.94;;;13.33;63.45
63654;BME280;49809;47.418;19.080;2022-09-21T17:22:33;100942.16;;;13.29;63.42
63654;BME280;49809;47.418;19.080;2022-09-21T17:25:37;100946.31;;;13.15;64.73
63654;BME280;49809;47.418;19.080;2022-09-21T17:28:53;100950.81;;;13.15;65.20
63654;BME280;49809;47.418;19.080;2022-09-21T17:33:42;100955.25;;;13.09;64.94
63654;BME280;49809;47.418;19.080;2022-09-21T17:36:54;100958.91;;;13.03;65.50
63654;BME280;49809;47.418;19.080;2022-09-21T17:51:26;100969.72;;;12.70;66.64
63654;BME280;49809;47.418;19.080;2022-09-21T17:55:16;100965.09;;;12.60;67.13
63654;BME280;49809;47.418;19.080;2022-09-21T17:59:03;100975.69;;;12.60;66.65
63654;BME280;49809;47.418;19.080;2022-09-21T18:02:42;100972.56;;;12.63;66.03
63654;BME280;49809;47.418;19.080;2022-09-21T18:06:33;100980.22;;;12.59;66.12
63654;BME280;49809;47.418;19.080;2022-09-21T18:09:51;100981.53;;;12.57;66.10
63654;BME280;49809;47.418;19.080;2022-09-21T18:21:28;100990.28;;;12.36;67.64
63654;BME280;49809;47.418;19.080;2022-09-21T18:24:32;100993.66;;;12.31;68.46
63654;BME280;49809;47.418;19.080;2022-09-21T18:28:11;100992.25;;;12.24;68.62
63654;BME280;49809;47.418;19.080;2022-09-21T18:35:45;101001.28;;;12.06;70.37
63654;BME280;49809;47.418;19.080;2022-09-21T18:39:49;101003.31;;;11.99;70.58
63654;BME280;49809;47.418;19.080;2022-09-21T18:55:45;101008.53;;;11.77;72.51
63654;BME280;49809;47.418;19.080;2022-09-21T18:59:27;101010.22;;;11.66;72.95
63654;BME280;49809;47.418;19.080;2022-09-21T19:03:15;101013.56;;;11.62;73.20
63654;BME280;49809;47.418;19.080;2022-09-21T19:07:17;101013.41;;;11.52;74.42
63654;BME280;49809;47.418;19.080;2022-09-21T19:11:08;101007.84;;;11.53;74.13
63654;BME280;49809;47.418;19.080;2022-09-21T19:19:19;101004.72;;;11.40;74.61
63654;BME280;49809;47.418;19.080;2022-09-21T19:35:20;101011.13;;;10.99;77.23
63654;BME280;49809;47.418;19.080;2022-09-21T19:38:38;101013.69;;;10.94;78.52
63654;BME280;49809;47.418;19.080;2022-09-21T19:42:11;101017.03;;;10.89;78.31
63654;BME280;49809;47.418;19.080;2022-09-21T19:48:58;101015.44;;;10.76;79.26
63654;BME280;49809;47.418;19.080;2022-09-21T19:52:18;101006.84;;;10.69;79.91
63654;BME280;49809;47.418;19.080;2022-09-21T19:55:24;101004.22;;;10.58;80.10
63654;BME280;49809;47.418;19.080;2022-09-21T19:58:47;101001.56;;;10.58;80.95
63654;BME280;49809;47.418;19.080;2022-09-21T20:02:28;101000.28;;;10.60;80.48
63654;BME280;49809;47.418;19.080;2022-09-21T20:05:48;101000.00;;;10.45;81.49
63654;BME280;49809;47.418;19.080;2022-09-21T20:12:20;101005.41;;;10.15;83.02
63654;BME280;49809;47.418;19.080;2022-09-21T20:16:15;101008.84;;;10.04;84.12
63654;BME280;49809;47.418;19.080;2022-09-21T20:23:26;101021.13;;;9.75;86.50
63654;BME280;49809;47.418;19.080;2022-09-21T20:26:29;101022.28;;;9.68;87.28
63654;BME280;49809;47.418;19.080;2022-09-21T20:29:34;101020.41;;;9.56;87.20
63654;BME280;49809;47.418;19.080;2022-09-21T20:32:39;101021.66;;;9.54;87.61
63654;BME280;49809;47.418;19.080;2022-09-21T20:35:46;101022.72;;;9.53;87.32
63654;BME280;49809;47.418;19.080;2022-09-21T20:39:25;101026.63;;;9.62;86.96
63654;BME280;49809;47.418;19.080;2022-09-21T20:42:28;101013.78;;;9.77;85.10
63654;BME280;49809;47.418;19.080;2022-09-21T20:45:30;101019.19;;;9.71;85.44
63654;BME280;49809;47.418;19.080;2022-09-21T20:48:39;101025.72;;;9.68;85.65
63654;BME280;49809;47.418;19.080;2022-09-21T20:51:44;101025.28;;;9.71;85.41
63654;BME280;49809;47.418;19.080;2022-09-21T20:54:48;101022.38;;;9.61;85.80
63654;BME280;49809;47.418;19.080;2022-09-21T20:57:56;101022.25;;;9.56;85.89